createdAt,value
2018-09-17T00:00:39.602Z,13.73
2018-09-17T00:03:06.879Z,12.50
2018-09-17T00:05:34.011Z,12.97
2018-09-17T00:08:01.222Z,13.53
2018-09-17T00:10:28.692Z,12.03
2018-09-17T00:12:55.753Z,12.00
2018-09-17T00:15:22.754Z,11.97
2018-09-17T00:17:50.149Z,11.07
2018-09-17T00:20:17.174Z,11.60
2018-09-17T00:22:44.166Z,10.80
2018-09-17T00:25:11.243Z,10.73
2018-09-17T00:27:38.239Z,10.97
2018-09-17T00:30:05.329Z,10.40
2018-09-17T00:32:32.370Z,11.23
2018-09-17T00:34:59.395Z,10.73
2018-09-17T00:37:26.391Z,10.20
2018-09-17T00:39:53.720Z,10.73
2018-09-17T00:42:20.714Z,10.80
2018-09-17T00:44:47.698Z,10.67
2018-09-17T00:47:14.989Z,10.70
2018-09-17T00:49:42.189Z,11.60
2018-09-17T00:52:09.310Z,10.70
2018-09-17T00:54:36.954Z,11.63
2018-09-17T00:57:04.251Z,11.73
2018-09-17T00:59:31.334Z,12.77
2018-09-17T01:01:58.601Z,12.30
2018-09-17T01:04:25.644Z,12.50
2018-09-17T01:06:52.803Z,13.83
2018-09-17T01:09:26.070Z,12.70
2018-09-17T01:11:59.874Z,12.47
2018-09-17T01:14:27.168Z,12.77
2018-09-17T01:16:54.233Z,13.23
2018-09-17T01:19:21.284Z,13.20
2018-09-17T01:21:48.436Z,13.10
2018-09-17T01:24:15.497Z,13.07
2018-09-17T01:26:42.715Z,13.17
2018-09-17T01:29:09.930Z,13.20
2018-09-17T01:31:36.862Z,13.07
2018-09-17T01:34:03.873Z,12.60
2018-09-17T01:36:31.126Z,11.97
2018-09-17T01:38:58.153Z,12.47
2018-09-17T01:41:25.490Z,11.47
2018-09-17T01:43:52.817Z,10.27
2018-09-17T01:46:19.880Z,11.03
2018-09-17T01:48:46.851Z,10.77
2018-09-17T01:51:13.895Z,10.40
2018-09-17T01:53:40.897Z,10.93
2018-09-17T01:56:07.925Z,10.70
2018-09-17T01:58:35.348Z,10.83
2018-09-17T02:01:02.305Z,10.07
2018-09-17T02:03:29.302Z,10.50
2018-09-17T02:05:56.496Z,10.67
2018-09-17T02:08:23.470Z,11.33
2018-09-17T02:10:50.467Z,10.30
2018-09-17T02:13:17.893Z,10.13
2018-09-17T02:15:44.819Z,11.23
2018-09-17T02:18:11.790Z,11.03
2018-09-17T02:20:39.012Z,11.10
2018-09-17T02:23:06.094Z,10.47
2018-09-17T02:25:33.086Z,10.37
2018-09-17T02:28:00.440Z,10.83
2018-09-17T02:30:27.402Z,10.70
2018-09-17T02:32:54.365Z,10.43
2018-09-17T02:35:21.611Z,10.43
2018-09-17T02:37:48.641Z,11.67
2018-09-17T02:40:16.893Z,10.77
2018-09-17T02:42:44.936Z,10.97
2018-09-17T02:45:11.919Z,10.63
2018-09-17T02:47:38.915Z,10.70
2018-09-17T02:50:06.699Z,11.03
2018-09-17T02:52:33.675Z,10.43
2018-09-17T02:55:00.638Z,10.13
2018-09-17T02:57:28.046Z,10.97
2018-09-17T02:59:55.013Z,10.87
2018-09-17T03:02:21.949Z,10.40
2018-09-17T03:04:49.218Z,10.40
2018-09-17T03:07:16.277Z,10.27
2018-09-17T03:09:43.259Z,11.07
2018-09-17T03:12:10.240Z,10.87
2018-09-17T03:14:37.153Z,10.37
2018-09-17T03:17:12.282Z,11.17
2018-09-17T03:19:40.285Z,11.90
2018-09-17T03:22:07.433Z,11.60
2018-09-17T03:24:34.895Z,11.20
2018-09-17T03:27:01.994Z,12.50
2018-09-17T03:29:29.129Z,11.93
2018-09-17T03:31:56.523Z,12.47
2018-09-17T03:34:23.600Z,12.70
2018-09-17T03:36:50.653Z,12.40
2018-09-17T03:39:17.767Z,12.57
2018-09-17T03:41:44.822Z,12.27
2018-09-17T03:44:11.872Z,12.50
2018-09-17T03:46:39.467Z,12.23
2018-09-17T03:49:06.473Z,12.03
2018-09-17T03:51:33.554Z,11.87
2018-09-17T03:54:00.930Z,12.57
2018-09-17T03:56:27.961Z,12.93
2018-09-17T03:58:55.105Z,12.03
2018-09-17T04:01:22.442Z,12.47
2018-09-17T04:03:49.500Z,11.67
2018-09-17T04:06:16.642Z,12.40
2018-09-17T04:08:43.996Z,12.20
2018-09-17T04:11:11.099Z,11.93
2018-09-17T04:13:38.310Z,11.63
2018-09-17T04:16:05.390Z,13.60
2018-09-17T04:18:32.465Z,13.70
2018-09-17T04:20:59.549Z,12.67
2018-09-17T04:23:31.782Z,11.77
2018-09-17T04:25:58.798Z,13.30
2018-09-17T04:28:25.844Z,12.80
2018-09-17T04:30:52.933Z,20.10
2018-09-17T04:33:19.906Z,12.23
2018-09-17T04:35:46.925Z,12.00
2018-09-17T04:38:14.649Z,12.90
2018-09-17T04:40:41.749Z,11.87
2018-09-17T04:43:08.778Z,12.10
2018-09-17T04:45:35.891Z,13.07
2018-09-17T04:48:03.011Z,45.87
2018-09-17T04:50:30.122Z,12.03
2018-09-17T04:52:57.475Z,11.90
2018-09-17T04:55:24.491Z,11.43
2018-09-17T04:57:51.520Z,11.53
2018-09-17T05:00:18.965Z,12.07
2018-09-17T05:02:46.029Z,11.70
2018-09-17T05:05:13.061Z,13.07
2018-09-17T05:07:40.550Z,12.60
2018-09-17T05:10:07.584Z,12.00
2018-09-17T05:12:34.653Z,12.10
2018-09-17T05:15:01.734Z,12.20
2018-09-17T05:17:28.802Z,11.60
2018-09-17T05:19:55.823Z,12.97
2018-09-17T05:22:23.217Z,11.80
2018-09-17T05:24:50.285Z,11.87
2018-09-17T05:27:17.394Z,11.63
2018-09-17T05:29:44.727Z,12.40
2018-09-17T05:32:11.822Z,12.57
2018-09-17T05:34:38.989Z,11.80
2018-09-17T05:37:06.421Z,12.57
2018-09-17T05:39:33.483Z,11.40
2018-09-17T05:42:00.541Z,11.70
2018-09-17T05:44:27.631Z,11.60
2018-09-17T05:46:54.705Z,11.70
2018-09-17T05:49:21.781Z,13.30
2018-09-17T05:51:49.048Z,11.10
2018-09-17T05:54:15.973Z,12.53
2018-09-17T05:56:43.000Z,11.37
2018-09-17T05:59:10.365Z,11.00
2018-09-17T06:01:37.323Z,10.60
2018-09-17T06:04:04.306Z,11.13
2018-09-17T06:06:31.598Z,10.60
2018-09-17T06:08:58.680Z,9.47
2018-09-17T06:11:25.712Z,10.30
2018-09-17T06:13:52.895Z,9.77
2018-09-17T06:16:20.014Z,10.40
2018-09-17T06:18:47.151Z,10.40
2018-09-17T06:21:14.516Z,10.60
2018-09-17T06:23:41.650Z,10.60
2018-09-17T06:26:08.759Z,11.63
2018-09-17T06:28:36.236Z,12.70
2018-09-17T06:31:03.150Z,10.27
2018-09-17T06:33:30.174Z,11.73
2018-09-17T06:35:57.195Z,11.17
2018-09-17T06:38:24.226Z,10.93
2018-09-17T06:40:51.321Z,10.50
2018-09-17T06:43:18.730Z,12.73
2018-09-17T06:45:45.797Z,12.90
2018-09-17T06:48:12.875Z,10.60
2018-09-17T06:50:40.341Z,10.13
2018-09-17T06:53:07.461Z,12.80
2018-09-17T06:55:34.565Z,14.07
2018-09-17T06:58:01.780Z,12.17
2018-09-17T07:00:28.934Z,13.77
2018-09-17T07:02:56.054Z,10.73
2018-09-17T07:05:23.186Z,18.07
2018-09-17T07:07:50.278Z,11.57
2018-09-17T07:10:17.312Z,10.40
2018-09-17T07:12:44.673Z,9.07
2018-09-17T07:15:11.762Z,8.60
2018-09-17T07:17:38.846Z,11.50
2018-09-17T07:20:05.896Z,8.63
2018-09-17T07:22:32.937Z,7.43
2018-09-17T07:25:00.010Z,7.73
2018-09-17T07:27:27.080Z,11.83
2018-09-17T07:29:54.206Z,10.53
2018-09-17T07:32:21.584Z,9.67
2018-09-17T07:34:48.940Z,6.80
2018-09-17T07:37:16.048Z,6.77
2018-09-17T07:39:43.096Z,8.80
2018-09-17T07:42:10.559Z,5.70
2018-09-17T07:44:37.630Z,7.67
2018-09-17T07:47:04.684Z,7.47
2018-09-17T07:49:32.090Z,8.07
2018-09-17T07:51:59.245Z,5.90
2018-09-17T07:54:26.351Z,6.70
2018-09-17T07:56:53.537Z,9.30
2018-09-17T07:59:20.776Z,7.27
2018-09-17T08:01:47.820Z,5.00
2018-09-17T08:04:15.356Z,4.60
2018-09-17T08:06:42.412Z,5.10
2018-09-17T08:09:11.654Z,13.80
2018-09-17T08:11:39.442Z,5.40
2018-09-17T08:14:06.521Z,8.20
2018-09-17T08:16:33.642Z,4.70
2018-09-17T08:19:01.337Z,5.43
2018-09-17T08:21:28.547Z,4.43
2018-09-17T08:23:55.880Z,6.93
2018-09-17T08:26:23.127Z,5.70
2018-09-17T08:28:50.241Z,4.77
2018-09-17T08:31:17.440Z,6.10
2018-09-17T08:33:44.969Z,5.40
2018-09-17T08:36:12.173Z,5.70
2018-09-17T08:38:39.211Z,5.07
2018-09-17T08:41:06.446Z,5.40
2018-09-17T08:43:33.580Z,4.93
2018-09-17T08:46:00.869Z,6.70
2018-09-17T08:48:28.208Z,5.83
2018-09-17T08:50:55.290Z,4.67
2018-09-17T08:53:22.477Z,4.67
2018-09-17T08:55:55.349Z,5.20
2018-09-17T08:58:23.470Z,4.30
2018-09-17T09:01:00.487Z,4.63
2018-09-17T09:03:33.488Z,9.43
2018-09-17T09:06:07.312Z,4.10
2018-09-17T09:08:34.498Z,4.23
2018-09-17T09:11:07.605Z,5.10
2018-09-17T09:13:40.739Z,7.50
2018-09-17T09:16:07.810Z,3.67
2018-09-17T09:18:34.974Z,3.23
2018-09-17T09:21:02.082Z,3.90
2018-09-17T09:23:29.738Z,3.60
2018-09-17T09:25:56.804Z,3.70
2018-09-17T09:33:54.035Z,3.50
2018-09-17T09:36:21.068Z,4.70
2018-09-17T09:38:48.137Z,3.90
2018-09-17T09:41:15.660Z,3.10
2018-09-17T09:43:42.840Z,6.13
2018-09-17T09:46:09.995Z,3.90
2018-09-17T09:48:37.462Z,4.17
2018-09-17T09:51:04.529Z,3.30
2018-09-17T09:53:31.629Z,3.97
2018-09-17T09:55:59.014Z,4.93
2018-09-17T09:58:26.159Z,3.00
2018-09-17T10:00:59.490Z,3.27
2018-09-17T10:03:34.217Z,3.90
2018-09-17T10:06:01.469Z,2.93
2018-09-17T10:08:28.546Z,3.17
2018-09-17T10:11:01.876Z,2.60
2018-09-17T10:13:34.873Z,3.80
2018-09-17T10:16:08.053Z,2.40
2018-09-17T10:18:40.945Z,2.60
2018-09-17T10:21:08.390Z,2.60
2018-09-17T10:23:35.460Z,2.20
2018-09-17T10:26:02.524Z,2.13
2018-09-17T10:28:29.631Z,2.10
2018-09-17T10:30:56.718Z,4.00
2018-09-17T10:33:23.793Z,2.17
2018-09-17T10:35:51.295Z,2.30
2018-09-17T10:38:18.361Z,2.40
2018-09-17T10:40:45.442Z,2.43
2018-09-17T10:43:12.916Z,3.10
2018-09-17T10:45:40.021Z,2.90
2018-09-17T10:48:07.118Z,2.40
2018-09-17T10:50:34.584Z,3.53
2018-09-17T10:53:01.664Z,3.83
2018-09-17T10:55:28.741Z,2.80
2018-09-17T10:57:56.173Z,3.50
2018-09-17T11:00:23.537Z,1.80
2018-09-17T11:02:50.672Z,2.67
2018-09-17T11:05:18.095Z,2.00
2018-09-17T11:07:45.228Z,3.63
2018-09-17T11:10:12.331Z,3.50
2018-09-17T11:12:39.739Z,2.33
2018-09-17T11:15:06.878Z,2.20
2018-09-17T11:17:34.054Z,1.80
2018-09-17T11:20:01.392Z,2.13
2018-09-17T11:22:28.486Z,2.03
2018-09-17T11:24:55.606Z,2.23
2018-09-17T11:27:22.942Z,2.63
2018-09-17T11:29:50.029Z,1.93
2018-09-17T11:32:17.187Z,3.40
2018-09-17T11:34:44.682Z,1.90
2018-09-17T11:37:11.780Z,1.67
2018-09-17T11:39:39.154Z,2.40
2018-09-17T11:42:06.528Z,2.10
2018-09-17T11:44:33.609Z,2.10
2018-09-17T11:47:00.767Z,2.03
2018-09-17T11:49:28.117Z,2.07
2018-09-17T11:51:55.265Z,1.40
2018-09-17T11:54:22.516Z,2.00
2018-09-17T11:56:49.909Z,2.30
2018-09-17T11:59:17.084Z,3.20
2018-09-17T12:01:50.486Z,2.90
2018-09-17T12:04:23.403Z,2.40
2018-09-17T12:06:56.670Z,2.13
2018-09-17T12:09:23.802Z,2.80
2018-09-17T12:11:50.865Z,2.10
2018-09-17T12:14:17.947Z,2.87
2018-09-17T12:16:45.037Z,1.60
2018-09-17T12:19:12.113Z,1.80
2018-09-17T12:21:39.465Z,2.30
2018-09-17T12:24:06.592Z,2.30
2018-09-17T12:26:33.715Z,2.90
2018-09-17T12:29:00.871Z,2.23
2018-09-17T12:31:27.971Z,2.50
2018-09-17T12:33:55.229Z,2.07
2018-09-17T12:36:22.671Z,2.50
2018-09-17T12:38:49.918Z,3.20
2018-09-17T12:41:17.032Z,2.20
2018-09-17T12:43:44.579Z,2.67
2018-09-17T12:46:11.725Z,1.77
2018-09-17T12:48:38.855Z,1.80
2018-09-17T12:51:06.110Z,3.43
2018-09-17T12:53:33.324Z,17.50
2018-09-17T12:56:00.374Z,2.40
2018-09-17T12:58:27.817Z,2.10
2018-09-17T13:00:54.913Z,2.20
2018-09-17T13:03:22.020Z,3.33
2018-09-17T13:05:49.436Z,1.77
2018-09-17T13:08:16.521Z,2.47
2018-09-17T13:10:43.754Z,2.17
2018-09-17T13:13:10.829Z,2.10
2018-09-17T13:15:42.556Z,3.20
2018-09-17T13:18:12.261Z,2.70
2018-09-17T13:20:39.529Z,4.90
2018-09-17T13:23:06.636Z,3.03
2018-09-17T13:25:34.047Z,3.57
2018-09-17T13:28:01.152Z,2.30
2018-09-17T13:30:28.307Z,3.50
2018-09-17T13:32:55.710Z,3.10
2018-09-17T13:35:22.769Z,3.13
2018-09-17T13:37:49.870Z,2.13
2018-09-17T13:40:16.959Z,2.30
2018-09-17T13:42:44.043Z,2.53
2018-09-17T13:45:11.150Z,2.20
2018-09-17T13:47:38.621Z,2.60
2018-09-17T13:50:05.783Z,3.00
2018-09-17T13:52:32.869Z,2.00
2018-09-17T13:55:00.362Z,2.90
2018-09-17T13:57:29.364Z,3.90
2018-09-17T13:59:56.794Z,3.47
2018-09-17T14:02:24.214Z,3.57
2018-09-17T14:04:51.309Z,2.60
2018-09-17T14:07:18.393Z,3.60
2018-09-17T14:09:45.478Z,3.63
2018-09-17T14:12:12.605Z,3.23
2018-09-17T14:14:39.696Z,3.90
2018-09-17T14:17:07.230Z,3.53
2018-09-17T14:19:34.352Z,2.60
2018-09-17T14:22:01.568Z,2.40
2018-09-17T14:24:29.093Z,4.87
2018-09-17T14:26:56.282Z,3.20
2018-09-17T14:29:23.401Z,3.33
2018-09-17T14:31:56.749Z,2.10
2018-09-17T14:34:23.835Z,3.60
2018-09-17T14:36:51.240Z,3.27
2018-09-17T14:39:18.372Z,3.10
2018-09-17T14:41:45.474Z,2.87
2018-09-17T14:44:12.638Z,2.93
2018-09-17T14:46:39.821Z,4.27
2018-09-17T14:49:06.955Z,3.40
2018-09-17T14:51:34.127Z,3.43
2018-09-17T14:54:04.467Z,2.97
2018-09-17T14:56:31.573Z,5.00
2018-09-17T14:58:58.727Z,3.33
2018-09-17T15:01:26.494Z,3.20
2018-09-17T15:03:53.528Z,3.00
2018-09-17T15:06:20.796Z,2.73
2018-09-17T15:08:48.479Z,2.80
2018-09-17T15:11:15.718Z,3.10
2018-09-17T15:13:43.623Z,2.80
2018-09-17T15:16:11.057Z,2.40
2018-09-17T15:18:38.223Z,3.23
2018-09-17T15:21:05.470Z,3.50
2018-09-17T15:23:32.929Z,3.20
2018-09-17T15:26:00.177Z,3.50
2018-09-17T15:28:27.414Z,3.50
2018-09-17T15:30:54.526Z,4.70
2018-09-17T15:33:21.734Z,3.30
2018-09-17T15:35:48.970Z,2.87
2018-09-17T15:38:16.398Z,3.37
2018-09-17T15:40:43.435Z,3.80
2018-09-17T15:43:10.519Z,2.97
2018-09-17T15:45:38.015Z,2.40
2018-09-17T15:48:05.400Z,3.07
2018-09-17T15:50:32.564Z,2.70
2018-09-17T15:52:59.822Z,2.80
2018-09-17T15:55:27.036Z,4.50
2018-09-17T15:57:54.262Z,3.80
2018-09-17T16:00:21.666Z,3.63
2018-09-17T16:02:48.973Z,3.80
2018-09-17T16:05:16.086Z,4.07
2018-09-17T16:07:43.273Z,3.47
2018-09-17T16:10:10.393Z,3.10
2018-09-17T16:12:37.558Z,3.13
2018-09-17T16:15:05.003Z,3.80
2018-09-17T16:17:32.177Z,3.27
2018-09-17T16:19:59.722Z,3.63
2018-09-17T16:22:26.855Z,4.00
2018-09-17T16:24:54.025Z,4.07
2018-09-17T16:27:21.107Z,4.60
2018-09-17T16:29:48.391Z,4.27
2018-09-17T16:32:15.629Z,3.70
2018-09-17T16:34:43.636Z,4.50
2018-09-17T16:37:11.134Z,4.33
2018-09-17T16:39:38.307Z,3.93
2018-09-17T16:42:05.555Z,3.87
2018-09-17T16:44:32.855Z,4.83
2018-09-17T16:47:00.010Z,5.20
2018-09-17T16:49:27.176Z,5.50
2018-09-17T16:51:54.602Z,4.30
2018-09-17T16:54:21.806Z,5.20
2018-09-17T16:56:49.006Z,4.80
2018-09-17T16:59:16.681Z,6.80
2018-09-17T17:01:43.696Z,5.77
2018-09-17T17:04:10.875Z,5.27
2018-09-17T17:06:38.057Z,4.63
2018-09-17T17:09:05.905Z,6.23
2018-09-17T17:11:33.021Z,7.03
2018-09-17T17:14:01.873Z,6.00
2018-09-17T17:16:30.060Z,6.00
2018-09-17T17:18:57.327Z,6.50
2018-09-17T17:21:26.465Z,6.93
2018-09-17T17:23:53.825Z,7.70
2018-09-17T17:26:21.091Z,9.57
2018-09-17T17:28:48.477Z,8.30
2018-09-17T17:31:15.644Z,8.40
2018-09-17T17:33:42.791Z,9.67
2018-09-17T17:36:09.981Z,8.93
2018-09-17T17:38:37.093Z,9.57
2018-09-17T17:41:04.269Z,9.93
2018-09-17T17:43:31.737Z,11.60
2018-09-17T17:45:58.817Z,11.20
2018-09-17T17:48:25.868Z,14.03
2018-09-17T17:50:53.573Z,10.30
2018-09-17T17:53:20.721Z,13.43
2018-09-17T17:55:48.353Z,15.67
2018-09-17T17:58:17.534Z,18.00
2018-09-17T18:00:45.578Z,20.33
2018-09-17T18:03:12.810Z,17.30
2018-09-17T18:05:39.953Z,18.20
2018-09-17T18:08:07.047Z,17.60
2018-09-17T18:10:34.181Z,15.57
2018-09-17T18:13:01.836Z,13.77
2018-09-17T18:15:28.975Z,17.60
2018-09-17T18:17:56.148Z,18.10
2018-09-17T18:20:23.224Z,15.30
2018-09-17T18:22:50.396Z,21.43
2018-09-17T18:25:17.823Z,17.70
2018-09-17T18:27:47.459Z,25.07
2018-09-17T18:30:14.609Z,28.80
2018-09-17T18:32:41.795Z,30.67
2018-09-17T18:35:09.228Z,26.90
2018-09-17T18:37:36.461Z,26.77
2018-09-17T18:40:03.490Z,26.80
2018-09-17T18:42:30.618Z,32.13
2018-09-17T18:45:16.079Z,23.00
2018-09-17T18:47:43.447Z,26.67
2018-09-17T18:50:10.424Z,20.73
2018-09-17T18:52:37.501Z,19.73
2018-09-17T18:55:04.979Z,26.33
2018-09-17T18:57:32.238Z,22.30
2018-09-17T18:59:59.511Z,33.50
2018-09-17T19:02:26.940Z,32.03
2018-09-17T19:04:53.950Z,30.43
2018-09-17T19:07:21.093Z,26.40
2018-09-17T19:09:49.544Z,22.60
2018-09-17T19:12:17.802Z,28.00
2018-09-17T19:14:51.165Z,30.57
2018-09-17T19:17:24.000Z,25.80
2018-09-17T19:19:51.595Z,27.87
2018-09-17T19:22:24.937Z,25.17
2018-09-17T19:24:52.094Z,34.77
2018-09-17T19:27:19.169Z,32.73
2018-09-17T19:29:46.287Z,29.03
2018-09-17T19:32:13.536Z,31.90
2018-09-17T19:34:40.529Z,30.50
2018-09-17T19:37:13.703Z,27.53
2018-09-17T19:39:46.557Z,27.10
2018-09-17T19:42:13.948Z,27.63
2018-09-17T19:44:45.570Z,23.37
2018-09-17T19:47:12.658Z,23.50
2018-09-17T19:49:40.172Z,24.03
2018-09-17T19:52:13.120Z,25.30
2018-09-17T19:54:40.235Z,22.73
2018-09-17T19:57:11.988Z,22.87
2018-09-17T19:59:45.329Z,23.23
2018-09-17T20:02:12.349Z,20.80
2018-09-17T20:04:45.665Z,20.97
2018-09-17T20:07:13.273Z,22.20
2018-09-17T20:09:40.852Z,20.97
2018-09-17T20:12:09.464Z,22.50
2018-09-17T20:14:36.972Z,21.50
2018-09-17T20:17:03.989Z,20.83
2018-09-17T20:19:30.997Z,21.93
2018-09-17T20:21:58.405Z,23.50
2018-09-17T20:24:25.441Z,23.37
2018-09-17T20:26:52.792Z,22.90
2018-09-17T20:29:19.846Z,23.73
2018-09-17T20:31:46.927Z,21.73
2018-09-17T20:34:14.490Z,21.13
2018-09-17T20:36:41.485Z,19.70
2018-09-17T20:39:09.042Z,19.10
2018-09-17T20:41:36.132Z,19.53
2018-09-17T20:44:03.124Z,18.73
2018-09-17T20:46:30.194Z,19.23
2018-09-17T20:48:57.600Z,17.17
2018-09-17T20:51:24.684Z,17.70
2018-09-17T20:53:51.688Z,15.63
2018-09-17T20:56:19.029Z,16.93
2018-09-17T20:58:46.175Z,16.27
2018-09-17T21:01:13.211Z,16.20
2018-09-17T21:03:40.602Z,15.67
2018-09-17T21:06:07.722Z,16.97
2018-09-17T21:08:34.771Z,20.00
2018-09-17T21:11:02.175Z,22.50
2018-09-17T21:13:29.322Z,25.70
2018-09-17T21:15:56.364Z,25.80
2018-09-17T21:18:23.822Z,24.10
2018-09-17T21:20:50.928Z,22.20
2018-09-17T21:23:17.967Z,19.90
2018-09-17T21:25:44.964Z,13.13
2018-09-17T21:28:12.075Z,12.60
2018-09-17T21:30:39.225Z,13.03
2018-09-17T21:33:06.602Z,14.07
2018-09-17T21:35:33.583Z,15.03
2018-09-17T21:38:00.598Z,17.87
2018-09-17T21:40:27.942Z,17.83
2018-09-17T21:42:55.024Z,16.07
2018-09-17T21:45:22.100Z,19.40
2018-09-17T21:47:49.695Z,17.03
2018-09-17T21:50:16.781Z,17.70
2018-09-17T21:52:43.877Z,17.03
2018-09-17T21:55:11.081Z,16.90
2018-09-17T21:57:38.160Z,21.80
2018-09-17T22:00:05.283Z,20.00
2018-09-17T22:02:32.714Z,23.20
2018-09-17T22:04:59.733Z,23.30
2018-09-17T22:07:26.715Z,23.93
2018-09-17T22:09:54.275Z,25.30
2018-09-17T22:12:21.351Z,24.23
2018-09-17T22:14:48.615Z,20.03
2018-09-17T22:22:04.989Z,16.63
2018-09-17T22:24:32.153Z,15.10
2018-09-17T22:26:59.369Z,14.23
2018-09-17T22:29:26.491Z,15.30
2018-09-17T22:31:53.810Z,14.33
2018-09-17T22:34:20.869Z,12.73
2018-09-17T22:36:47.904Z,14.93
2018-09-17T22:39:15.242Z,13.63
2018-09-17T22:41:42.242Z,13.73
2018-09-17T22:44:09.255Z,13.73
2018-09-17T22:46:36.729Z,13.40
2018-09-17T22:49:03.811Z,14.10
2018-09-17T22:51:30.919Z,14.27
2018-09-17T22:53:57.976Z,13.70
2018-09-17T22:56:26.835Z,13.50
2018-09-17T22:58:55.692Z,13.80
2018-09-17T23:01:23.123Z,13.87
2018-09-17T23:03:50.180Z,12.90
2018-09-17T23:06:17.274Z,14.57
2018-09-17T23:08:44.709Z,13.03
2018-09-17T23:11:12.124Z,13.80
2018-09-17T23:13:39.520Z,13.37
2018-09-17T23:16:07.380Z,12.67
2018-09-17T23:18:34.927Z,13.20
2018-09-17T23:21:02.513Z,12.60
2018-09-17T23:23:30.797Z,13.67
2018-09-17T23:25:58.501Z,13.10
2018-09-17T23:28:26.098Z,13.33
2018-09-17T23:30:54.087Z,13.47
2018-09-17T23:33:21.514Z,13.50
2018-09-17T23:35:49.468Z,13.27
2018-09-17T23:38:17.223Z,13.80
2018-09-17T23:40:45.557Z,14.13
2018-09-17T23:43:12.678Z,14.50
2018-09-17T23:45:40.344Z,17.33
2018-09-17T23:48:07.482Z,15.10
2018-09-17T23:50:34.420Z,14.93
2018-09-17T23:53:01.658Z,15.20
2018-09-17T23:55:28.654Z,15.97
2018-09-17T23:57:55.690Z,15.10
